sensor_id;sensor_type;location;lat;lon;timestamp;P1;durP1;ratioP1;P2;durP2;ratioP2
80297;SDS011;69599;52.622;9.230;2023-06-22T00:01:01;4.53;;;3.88;;
80297;SDS011;69599;52.622;9.230;2023-06-22T00:03:26;5.93;;;4.30;;
80297;SDS011;69599;52.622;9.230;2023-06-22T00:05:52;5.65;;;4.13;;
80297;SDS011;69599;52.622;9.230;2023-06-22T00:08:18;5.60;;;3.92;;
80297;SDS011;69599;52.622;9.230;2023-06-22T00:10:44;4.70;;;3.58;;
80297;SDS011;69599;52.622;9.230;2023-06-22T00:13:11;6.32;;;3.65;;
80297;SDS011;69599;52.622;9.230;2023-06-22T00:15:37;4.05;;;3.25;;
80297;SDS011;69599;52.622;9.230;2023-06-22T00:18:04;4.88;;;3.28;;
80297;SDS011;69599;52.622;9.230;2023-06-22T00:20:31;5.55;;;3.53;;
80297;SDS011;69599;52.622;9.230;2023-06-22T00:22:58;5.28;;;4.10;;
80297;SDS011;69599;52.622;9.230;2023-06-22T00:25:24;3.90;;;3.50;;
80297;SDS011;69599;52.622;9.230;2023-06-22T00:27:49;6.55;;;3.60;;
80297;SDS011;69599;52.622;9.230;2023-06-22T00:30:15;5.75;;;3.88;;
80297;SDS011;69599;52.622;9.230;2023-06-22T00:32:41;5.68;;;3.92;;
80297;SDS011;69599;52.622;9.230;2023-06-22T00:35:07;5.30;;;4.35;;
80297;SDS011;69599;52.622;9.230;2023-06-22T00:37:33;7.45;;;4.28;;
80297;SDS011;69599;52.622;9.230;2023-06-22T00:40:00;5.47;;;3.80;;
80297;SDS011;69599;52.622;9.230;2023-06-22T00:42:26;5.38;;;3.85;;
80297;SDS011;69599;52.622;9.230;2023-06-22T00:44:51;5.90;;;3.95;;
80297;SDS011;69599;52.622;9.230;2023-06-22T00:47:17;6.20;;;4.40;;
80297;SDS011;69599;52.622;9.230;2023-06-22T00:49:43;5.60;;;4.00;;
80297;SDS011;69599;52.622;9.230;2023-06-22T00:52:09;4.80;;;4.18;;
80297;SDS011;69599;52.622;9.230;2023-06-22T00:54:42;6.70;;;4.78;;
80297;SDS011;69599;52.622;9.230;2023-06-22T00:57:11;4.97;;;4.15;;
80297;SDS011;69599;52.622;9.230;2023-06-22T00:59:37;7.03;;;4.72;;
80297;SDS011;69599;52.622;9.230;2023-06-22T01:02:04;5.88;;;4.60;;
80297;SDS011;69599;52.622;9.230;2023-06-22T01:04:37;5.80;;;4.53;;
80297;SDS011;69599;52.622;9.230;2023-06-22T01:10:33;4.70;;;4.05;;
80297;SDS011;69599;52.622;9.230;2023-06-22T01:12:53;6.78;;;4.47;;
80297;SDS011;69599;52.622;9.230;2023-06-22T01:15:34;5.53;;;4.18;;
80297;SDS011;69599;52.622;9.230;2023-06-22T01:18:19;5.80;;;4.30;;
80297;SDS011;69599;52.622;9.230;2023-06-22T01:20:52;5.72;;;3.90;;
80297;SDS011;69599;52.622;9.230;2023-06-22T01:25:47;4.93;;;4.40;;
80297;SDS011;69599;52.622;9.230;2023-06-22T01:31:03;5.93;;;4.28;;
80297;SDS011;69599;52.622;9.230;2023-06-22T01:33:34;6.07;;;4.78;;
80297;SDS011;69599;52.622;9.230;2023-06-22T01:36:01;5.95;;;4.72;;
80297;SDS011;69599;52.622;9.230;2023-06-22T01:38:28;5.72;;;4.57;;
80297;SDS011;69599;52.622;9.230;2023-06-22T01:40:54;5.63;;;4.50;;
80297;SDS011;69599;52.622;9.230;2023-06-22T01:43:21;7.53;;;4.22;;
80297;SDS011;69599;52.622;9.230;2023-06-22T01:45:48;6.35;;;4.18;;
80297;SDS011;69599;52.622;9.230;2023-06-22T01:48:14;6.18;;;4.55;;
80297;SDS011;69599;52.622;9.230;2023-06-22T01:50:40;5.45;;;4.20;;
80297;SDS011;69599;52.622;9.230;2023-06-22T01:53:05;6.13;;;4.28;;
80297;SDS011;69599;52.622;9.230;2023-06-22T01:55:32;7.30;;;5.00;;
80297;SDS011;69599;52.622;9.230;2023-06-22T01:57:57;5.97;;;5.28;;
80297;SDS011;69599;52.622;9.230;2023-06-22T02:00:22;6.65;;;4.80;;
80297;SDS011;69599;52.622;9.230;2023-06-22T02:05:22;7.70;;;5.15;;
80297;SDS011;69599;52.622;9.230;2023-06-22T02:08:09;7.60;;;5.05;;
80297;SDS011;69599;52.622;9.230;2023-06-22T02:10:36;5.97;;;4.72;;
80297;SDS011;69599;52.622;9.230;2023-06-22T02:13:05;5.25;;;4.60;;
80297;SDS011;69599;52.622;9.230;2023-06-22T02:15:32;7.75;;;5.78;;
80297;SDS011;69599;52.622;9.230;2023-06-22T02:17:57;6.70;;;5.38;;
80297;SDS011;69599;52.622;9.230;2023-06-22T02:20:23;8.05;;;5.05;;
80297;SDS011;69599;52.622;9.230;2023-06-22T02:22:49;6.13;;;4.72;;
80297;SDS011;69599;52.622;9.230;2023-06-22T02:25:14;6.18;;;4.85;;
80297;SDS011;69599;52.622;9.230;2023-06-22T02:27:40;5.72;;;4.97;;
80297;SDS011;69599;52.622;9.230;2023-06-22T02:30:07;6.75;;;5.57;;
80297;SDS011;69599;52.622;9.230;2023-06-22T02:32:34;6.00;;;5.32;;
80297;SDS011;69599;52.622;9.230;2023-06-22T02:34:59;7.35;;;5.40;;
80297;SDS011;69599;52.622;9.230;2023-06-22T02:37:25;7.88;;;5.97;;
80297;SDS011;69599;52.622;9.230;2023-06-22T02:39:54;5.90;;;5.13;;
80297;SDS011;69599;52.622;9.230;2023-06-22T02:42:20;6.57;;;5.25;;
80297;SDS011;69599;52.622;9.230;2023-06-22T02:44:46;8.95;;;5.40;;
80297;SDS011;69599;52.622;9.230;2023-06-22T02:47:12;7.53;;;5.78;;
80297;SDS011;69599;52.622;9.230;2023-06-22T02:49:37;7.47;;;6.10;;
80297;SDS011;69599;52.622;9.230;2023-06-22T02:52:03;7.25;;;5.53;;
80297;SDS011;69599;52.622;9.230;2023-06-22T02:54:28;5.70;;;5.10;;
80297;SDS011;69599;52.622;9.230;2023-06-22T02:56:54;7.28;;;5.55;;
80297;SDS011;69599;52.622;9.230;2023-06-22T02:59:19;8.32;;;5.70;;
80297;SDS011;69599;52.622;9.230;2023-06-22T03:01:51;6.70;;;5.38;;
80297;SDS011;69599;52.622;9.230;2023-06-22T03:04:17;6.72;;;5.57;;
80297;SDS011;69599;52.622;9.230;2023-06-22T03:06:43;8.68;;;5.53;;
80297;SDS011;69599;52.622;9.230;2023-06-22T03:09:08;7.13;;;5.90;;
80297;SDS011;69599;52.622;9.230;2023-06-22T03:11:34;6.90;;;5.55;;
80297;SDS011;69599;52.622;9.230;2023-06-22T03:14:00;6.35;;;5.13;;
80297;SDS011;69599;52.622;9.230;2023-06-22T03:16:26;7.03;;;4.90;;
80297;SDS011;69599;52.622;9.230;2023-06-22T03:18:51;6.80;;;5.45;;
80297;SDS011;69599;52.622;9.230;2023-06-22T03:21:18;6.78;;;6.07;;
80297;SDS011;69599;52.622;9.230;2023-06-22T03:23:44;8.40;;;5.93;;
80297;SDS011;69599;52.622;9.230;2023-06-22T03:26:09;7.55;;;5.78;;
80297;SDS011;69599;52.622;9.230;2023-06-22T03:28:35;6.20;;;5.60;;
80297;SDS011;69599;52.622;9.230;2023-06-22T03:31:01;8.13;;;6.18;;
80297;SDS011;69599;52.622;9.230;2023-06-22T03:33:26;6.63;;;5.72;;
80297;SDS011;69599;52.622;9.230;2023-06-22T03:35:52;9.57;;;6.38;;
80297;SDS011;69599;52.622;9.230;2023-06-22T03:38:18;8.23;;;6.68;;
80297;SDS011;69599;52.622;9.230;2023-06-22T03:40:44;8.52;;;6.53;;
80297;SDS011;69599;52.622;9.230;2023-06-22T03:43:09;9.50;;;6.35;;
80297;SDS011;69599;52.622;9.230;2023-06-22T03:45:34;6.78;;;5.80;;
80297;SDS011;69599;52.622;9.230;2023-06-22T03:48:00;7.95;;;6.43;;
80297;SDS011;69599;52.622;9.230;2023-06-22T03:50:26;8.63;;;6.88;;
80297;SDS011;69599;52.622;9.230;2023-06-22T03:52:51;7.15;;;5.78;;
80297;SDS011;69599;52.622;9.230;2023-06-22T03:55:17;10.38;;;6.22;;
80297;SDS011;69599;52.622;9.230;2023-06-22T03:57:44;7.32;;;5.35;;
80297;SDS011;69599;52.622;9.230;2023-06-22T04:00:09;6.35;;;5.43;;
80297;SDS011;69599;52.622;9.230;2023-06-22T04:02:36;6.13;;;5.45;;
80297;SDS011;69599;52.622;9.230;2023-06-22T04:05:01;6.30;;;4.95;;
80297;SDS011;69599;52.622;9.230;2023-06-22T04:07:26;8.20;;;5.57;;
80297;SDS011;69599;52.622;9.230;2023-06-22T04:09:52;6.13;;;5.53;;
80297;SDS011;69599;52.622;9.230;2023-06-22T04:12:17;6.72;;;5.93;;
80297;SDS011;69599;52.622;9.230;2023-06-22T04:14:43;9.07;;;5.22;;
80297;SDS011;69599;52.622;9.230;2023-06-22T04:17:08;7.53;;;5.15;;
80297;SDS011;69599;52.622;9.230;2023-06-22T04:19:33;6.32;;;4.82;;
80297;SDS011;69599;52.622;9.230;2023-06-22T04:21:59;7.32;;;4.65;;
80297;SDS011;69599;52.622;9.230;2023-06-22T04:24:24;5.85;;;4.70;;
80297;SDS011;69599;52.622;9.230;2023-06-22T04:26:50;7.65;;;5.38;;
80297;SDS011;69599;52.622;9.230;2023-06-22T04:29:18;6.20;;;4.50;;
80297;SDS011;69599;52.622;9.230;2023-06-22T04:31:44;7.45;;;5.03;;
80297;SDS011;69599;52.622;9.230;2023-06-22T04:34:09;5.68;;;4.68;;
80297;SDS011;69599;52.622;9.230;2023-06-22T04:36:40;5.20;;;4.32;;
80297;SDS011;69599;52.622;9.230;2023-06-22T04:39:09;6.53;;;4.35;;
80297;SDS011;69599;52.622;9.230;2023-06-22T04:41:36;5.45;;;4.45;;
80297;SDS011;69599;52.622;9.230;2023-06-22T04:44:14;6.57;;;4.55;;
80297;SDS011;69599;52.622;9.230;2023-06-22T04:46:52;5.70;;;4.20;;
80297;SDS011;69599;52.622;9.230;2023-06-22T04:49:19;5.78;;;4.00;;
80297;SDS011;69599;52.622;9.230;2023-06-22T04:51:46;5.32;;;3.70;;
80297;SDS011;69599;52.622;9.230;2023-06-22T04:54:11;6.35;;;4.20;;
80297;SDS011;69599;52.622;9.230;2023-06-22T04:56:37;5.50;;;4.95;;
80297;SDS011;69599;52.622;9.230;2023-06-22T04:59:03;4.50;;;3.72;;
80297;SDS011;69599;52.622;9.230;2023-06-22T05:01:28;5.03;;;4.00;;
80297;SDS011;69599;52.622;9.230;2023-06-22T05:03:56;4.82;;;4.32;;
80297;SDS011;69599;52.622;9.230;2023-06-22T05:06:22;5.25;;;3.83;;
80297;SDS011;69599;52.622;9.230;2023-06-22T05:08:51;5.97;;;3.78;;
80297;SDS011;69599;52.622;9.230;2023-06-22T05:11:18;5.72;;;3.50;;
80297;SDS011;69599;52.622;9.230;2023-06-22T05:13:43;5.28;;;3.22;;
80297;SDS011;69599;52.622;9.230;2023-06-22T05:16:09;5.82;;;3.78;;
80297;SDS011;69599;52.622;9.230;2023-06-22T05:18:34;5.50;;;3.80;;
80297;SDS011;69599;52.622;9.230;2023-06-22T05:21:00;4.55;;;3.33;;
80297;SDS011;69599;52.622;9.230;2023-06-22T05:23:25;5.97;;;3.80;;
80297;SDS011;69599;52.622;9.230;2023-06-22T05:25:51;6.05;;;3.75;;
80297;SDS011;69599;52.622;9.230;2023-06-22T05:28:16;7.15;;;4.10;;
80297;SDS011;69599;52.622;9.230;2023-06-22T05:30:42;8.40;;;4.13;;
80297;SDS011;69599;52.622;9.230;2023-06-22T05:33:07;5.43;;;4.30;;
80297;SDS011;69599;52.622;9.230;2023-06-22T05:35:32;5.38;;;4.07;;
80297;SDS011;69599;52.622;9.230;2023-06-22T05:37:58;4.88;;;3.67;;
80297;SDS011;69599;52.622;9.230;2023-06-22T05:40:23;4.47;;;3.60;;
80297;SDS011;69599;52.622;9.230;2023-06-22T05:42:48;5.10;;;3.90;;
80297;SDS011;69599;52.622;9.230;2023-06-22T05:45:14;5.03;;;4.07;;
80297;SDS011;69599;52.622;9.230;2023-06-22T05:47:39;5.93;;;3.78;;
80297;SDS011;69599;52.622;9.230;2023-06-22T05:50:05;5.03;;;2.85;;
80297;SDS011;69599;52.622;9.230;2023-06-22T05:52:33;5.07;;;3.50;;
80297;SDS011;69599;52.622;9.230;2023-06-22T05:54:58;4.90;;;3.05;;
80297;SDS011;69599;52.622;9.230;2023-06-22T05:57:24;4.30;;;3.60;;
80297;SDS011;69599;52.622;9.230;2023-06-22T05:59:49;4.50;;;3.65;;
80297;SDS011;69599;52.622;9.230;2023-06-22T06:02:14;4.93;;;3.30;;
80297;SDS011;69599;52.622;9.230;2023-06-22T06:04:40;4.72;;;3.72;;
80297;SDS011;69599;52.622;9.230;2023-06-22T06:07:05;6.25;;;3.72;;
80297;SDS011;69599;52.622;9.230;2023-06-22T06:09:31;4.50;;;3.47;;
80297;SDS011;69599;52.622;9.230;2023-06-22T06:11:56;4.40;;;3.53;;
80297;SDS011;69599;52.622;9.230;2023-06-22T06:14:22;5.35;;;3.55;;
80297;SDS011;69599;52.622;9.230;2023-06-22T06:16:48;4.22;;;3.22;;
80297;SDS011;69599;52.622;9.230;2023-06-22T06:19:14;4.28;;;2.90;;
80297;SDS011;69599;52.622;9.230;2023-06-22T06:21:39;4.82;;;3.60;;
80297;SDS011;69599;52.622;9.230;2023-06-22T06:24:05;6.13;;;3.58;;
80297;SDS011;69599;52.622;9.230;2023-06-22T06:26:30;5.95;;;3.55;;
80297;SDS011;69599;52.622;9.230;2023-06-22T06:28:59;5.47;;;3.97;;
80297;SDS011;69599;52.622;9.230;2023-06-22T06:31:25;6.47;;;4.40;;
80297;SDS011;69599;52.622;9.230;2023-06-22T06:33:53;7.40;;;3.85;;
80297;SDS011;69599;52.622;9.230;2023-06-22T06:36:19;4.65;;;3.95;;
80297;SDS011;69599;52.622;9.230;2023-06-22T06:38:44;3.92;;;3.53;;
80297;SDS011;69599;52.622;9.230;2023-06-22T06:41:12;6.95;;;4.13;;
80297;SDS011;69599;52.622;9.230;2023-06-22T06:43:41;5.25;;;3.78;;
80297;SDS011;69599;52.622;9.230;2023-06-22T06:46:08;6.22;;;4.07;;
80297;SDS011;69599;52.622;9.230;2023-06-22T06:48:33;6.28;;;4.20;;
80297;SDS011;69599;52.622;9.230;2023-06-22T06:50:59;4.50;;;3.78;;
80297;SDS011;69599;52.622;9.230;2023-06-22T06:53:24;5.43;;;3.55;;
80297;SDS011;69599;52.622;9.230;2023-06-22T06:55:50;5.72;;;3.92;;
80297;SDS011;69599;52.622;9.230;2023-06-22T06:58:15;6.55;;;4.15;;
80297;SDS011;69599;52.622;9.230;2023-06-22T07:00:41;6.75;;;4.30;;
80297;SDS011;69599;52.622;9.230;2023-06-22T07:03:08;4.90;;;3.60;;
80297;SDS011;69599;52.622;9.230;2023-06-22T07:05:34;5.82;;;3.92;;
80297;SDS011;69599;52.622;9.230;2023-06-22T07:08:00;5.85;;;3.85;;
80297;SDS011;69599;52.622;9.230;2023-06-22T07:10:25;6.88;;;4.20;;
80297;SDS011;69599;52.622;9.230;2023-06-22T07:12:51;7.78;;;4.05;;
80297;SDS011;69599;52.622;9.230;2023-06-22T07:15:16;4.82;;;4.10;;
80297;SDS011;69599;52.622;9.230;2023-06-22T07:17:42;4.93;;;3.55;;
80297;SDS011;69599;52.622;9.230;2023-06-22T07:20:07;6.60;;;4.03;;
80297;SDS011;69599;52.622;9.230;2023-06-22T07:22:40;4.82;;;3.47;;
80297;SDS011;69599;52.622;9.230;2023-06-22T07:25:07;4.43;;;3.30;;
80297;SDS011;69599;52.622;9.230;2023-06-22T07:27:39;4.90;;;4.00;;
80297;SDS011;69599;52.622;9.230;2023-06-22T07:30:09;5.93;;;3.33;;
80297;SDS011;69599;52.622;9.230;2023-06-22T07:32:35;4.38;;;3.67;;
80297;SDS011;69599;52.622;9.230;2023-06-22T07:35:01;6.38;;;3.80;;
80297;SDS011;69599;52.622;9.230;2023-06-22T07:37:27;6.47;;;3.88;;
80297;SDS011;69599;52.622;9.230;2023-06-22T07:39:53;6.10;;;4.22;;
80297;SDS011;69599;52.622;9.230;2023-06-22T07:42:23;7.75;;;4.43;;
80297;SDS011;69599;52.622;9.230;2023-06-22T07:44:51;4.68;;;4.20;;
80297;SDS011;69599;52.622;9.230;2023-06-22T07:47:17;6.38;;;4.20;;
80297;SDS011;69599;52.622;9.230;2023-06-22T07:49:44;7.57;;;4.40;;
80297;SDS011;69599;52.622;9.230;2023-06-22T07:52:10;8.38;;;4.47;;
80297;SDS011;69599;52.622;9.230;2023-06-22T07:54:36;4.65;;;4.13;;
80297;SDS011;69599;52.622;9.230;2023-06-22T07:57:01;5.20;;;3.88;;
80297;SDS011;69599;52.622;9.230;2023-06-22T07:59:27;7.07;;;4.65;;
80297;SDS011;69599;52.622;9.230;2023-06-22T08:01:52;4.20;;;3.67;;
80297;SDS011;69599;52.622;9.230;2023-06-22T08:04:18;4.55;;;4.15;;
80297;SDS011;69599;52.622;9.230;2023-06-22T08:06:43;5.22;;;4.72;;
80297;SDS011;69599;52.622;9.230;2023-06-22T08:09:08;11.65;;;5.68;;
80297;SDS011;69599;52.622;9.230;2023-06-22T08:11:34;4.72;;;4.22;;
80297;SDS011;69599;52.622;9.230;2023-06-22T08:13:59;4.50;;;4.10;;
80297;SDS011;69599;52.622;9.230;2023-06-22T08:16:25;4.90;;;4.40;;
80297;SDS011;69599;52.622;9.230;2023-06-22T08:18:50;7.22;;;5.00;;
80297;SDS011;69599;52.622;9.230;2023-06-22T08:21:15;5.70;;;4.05;;
80297;SDS011;69599;52.622;9.230;2023-06-22T08:23:42;5.75;;;4.45;;
80297;SDS011;69599;52.622;9.230;2023-06-22T08:26:07;5.32;;;3.80;;
80297;SDS011;69599;52.622;9.230;2023-06-22T08:28:32;10.93;;;5.18;;
80297;SDS011;69599;52.622;9.230;2023-06-22T08:30:59;5.22;;;4.43;;
80297;SDS011;69599;52.622;9.230;2023-06-22T08:33:25;4.47;;;4.07;;
80297;SDS011;69599;52.622;9.230;2023-06-22T08:35:53;5.60;;;4.50;;
80297;SDS011;69599;52.622;9.230;2023-06-22T08:40:47;6.93;;;4.63;;
80297;SDS011;69599;52.622;9.230;2023-06-22T08:43:12;6.03;;;4.65;;
80297;SDS011;69599;52.622;9.230;2023-06-22T08:45:38;6.68;;;4.65;;
80297;SDS011;69599;52.622;9.230;2023-06-22T08:48:03;5.70;;;5.10;;
80297;SDS011;69599;52.622;9.230;2023-06-22T08:50:29;6.82;;;4.53;;
80297;SDS011;69599;52.622;9.230;2023-06-22T08:52:54;7.55;;;5.20;;
80297;SDS011;69599;52.622;9.230;2023-06-22T08:55:19;6.63;;;4.32;;
80297;SDS011;69599;52.622;9.230;2023-06-22T08:57:45;8.65;;;5.55;;
80297;SDS011;69599;52.622;9.230;2023-06-22T09:00:10;7.15;;;4.90;;
80297;SDS011;69599;52.622;9.230;2023-06-22T09:02:44;5.20;;;4.70;;
80297;SDS011;69599;52.622;9.230;2023-06-22T09:05:10;6.22;;;5.05;;
80297;SDS011;69599;52.622;9.230;2023-06-22T09:07:35;5.32;;;4.70;;
80297;SDS011;69599;52.622;9.230;2023-06-22T09:10:01;5.65;;;5.03;;
80297;SDS011;69599;52.622;9.230;2023-06-22T09:12:27;6.07;;;4.93;;
80297;SDS011;69599;52.622;9.230;2023-06-22T09:14:55;6.97;;;5.40;;
80297;SDS011;69599;52.622;9.230;2023-06-22T09:17:21;6.22;;;5.13;;
80297;SDS011;69599;52.622;9.230;2023-06-22T09:19:47;5.90;;;5.22;;
80297;SDS011;69599;52.622;9.230;2023-06-22T09:22:13;5.78;;;4.63;;
80297;SDS011;69599;52.622;9.230;2023-06-22T09:24:39;7.07;;;5.57;;
80297;SDS011;69599;52.622;9.230;2023-06-22T09:27:05;10.38;;;6.13;;
80297;SDS011;69599;52.622;9.230;2023-06-22T09:29:30;15.77;;;6.90;;
80297;SDS011;69599;52.622;9.230;2023-06-22T09:31:58;8.02;;;5.72;;
80297;SDS011;69599;52.622;9.230;2023-06-22T09:34:24;16.50;;;6.30;;
80297;SDS011;69599;52.622;9.230;2023-06-22T09:36:50;7.18;;;5.40;;
80297;SDS011;69599;52.622;9.230;2023-06-22T09:39:16;6.00;;;5.50;;
80297;SDS011;69599;52.622;9.230;2023-06-22T09:41:42;7.22;;;5.68;;
80297;SDS011;69599;52.622;9.230;2023-06-22T09:44:08;5.90;;;5.03;;
80297;SDS011;69599;52.622;9.230;2023-06-22T09:46:33;9.43;;;6.38;;
80297;SDS011;69599;52.622;9.230;2023-06-22T09:48:59;7.95;;;6.32;;
80297;SDS011;69599;52.622;9.230;2023-06-22T09:51:24;8.35;;;6.18;;
80297;SDS011;69599;52.622;9.230;2023-06-22T09:53:50;8.18;;;6.65;;
80297;SDS011;69599;52.622;9.230;2023-06-22T09:56:16;6.55;;;5.90;;
80297;SDS011;69599;52.622;9.230;2023-06-22T09:58:42;6.90;;;6.20;;
80297;SDS011;69599;52.622;9.230;2023-06-22T10:01:08;7.47;;;5.72;;
80297;SDS011;69599;52.622;9.230;2023-06-22T10:03:35;9.48;;;6.50;;
80297;SDS011;69599;52.622;9.230;2023-06-22T10:06:00;16.27;;;9.00;;
80297;SDS011;69599;52.622;9.230;2023-06-22T10:08:26;17.90;;;8.65;;
80297;SDS011;69599;52.622;9.230;2023-06-22T10:10:51;16.83;;;8.68;;
80297;SDS011;69599;52.622;9.230;2023-06-22T10:13:17;9.35;;;7.13;;
80297;SDS011;69599;52.622;9.230;2023-06-22T10:15:43;10.05;;;7.35;;
80297;SDS011;69599;52.622;9.230;2023-06-22T10:18:14;13.98;;;8.27;;
80297;SDS011;69599;52.622;9.230;2023-06-22T10:23:08;16.38;;;7.15;;
80297;SDS011;69599;52.622;9.230;2023-06-22T10:25:33;8.63;;;7.03;;
80297;SDS011;69599;52.622;9.230;2023-06-22T10:27:59;10.95;;;7.43;;
80297;SDS011;69599;52.622;9.230;2023-06-22T10:30:24;10.43;;;6.68;;
80297;SDS011;69599;52.622;9.230;2023-06-22T10:32:50;15.20;;;7.72;;
80297;SDS011;69599;52.622;9.230;2023-06-22T10:35:15;10.80;;;7.57;;
80297;SDS011;69599;52.622;9.230;2023-06-22T10:37:44;9.57;;;7.22;;
80297;SDS011;69599;52.622;9.230;2023-06-22T10:40:11;16.33;;;7.22;;
80297;SDS011;69599;52.622;9.230;2023-06-22T10:42:38;9.23;;;6.88;;
80297;SDS011;69599;52.622;9.230;2023-06-22T10:45:03;10.15;;;6.88;;
80297;SDS011;69599;52.622;9.230;2023-06-22T10:47:29;8.75;;;7.60;;
80297;SDS011;69599;52.622;9.230;2023-06-22T10:49:55;10.18;;;7.07;;
80297;SDS011;69599;52.622;9.230;2023-06-22T10:52:20;7.35;;;6.60;;
80297;SDS011;69599;52.622;9.230;2023-06-22T10:54:45;8.23;;;6.78;;
80297;SDS011;69599;52.622;9.230;2023-06-22T10:57:11;39.20;;;12.85;;
80297;SDS011;69599;52.622;9.230;2023-06-22T10:59:36;11.65;;;7.75;;
80297;SDS011;69599;52.622;9.230;2023-06-22T11:02:02;10.85;;;7.75;;
80297;SDS011;69599;52.622;9.230;2023-06-22T11:04:27;8.65;;;7.75;;
80297;SDS011;69599;52.622;9.230;2023-06-22T11:06:52;7.53;;;6.82;;
80297;SDS011;69599;52.622;9.230;2023-06-22T11:09:18;8.68;;;7.28;;
80297;SDS011;69599;52.622;9.230;2023-06-22T11:11:46;7.72;;;6.80;;
80297;SDS011;69599;52.622;9.230;2023-06-22T11:14:12;8.35;;;7.50;;
80297;SDS011;69599;52.622;9.230;2023-06-22T11:16:37;9.35;;;7.57;;
80297;SDS011;69599;52.622;9.230;2023-06-22T11:19:04;7.93;;;7.13;;
80297;SDS011;69599;52.622;9.230;2023-06-22T11:21:30;9.00;;;8.10;;
80297;SDS011;69599;52.622;9.230;2023-06-22T11:23:56;10.15;;;7.60;;
80297;SDS011;69599;52.622;9.230;2023-06-22T11:26:22;8.07;;;7.28;;
80297;SDS011;69599;52.622;9.230;2023-06-22T11:28:47;8.68;;;7.57;;
80297;SDS011;69599;52.622;9.230;2023-06-22T11:31:13;8.93;;;8.00;;
80297;SDS011;69599;52.622;9.230;2023-06-22T11:33:39;10.70;;;7.93;;
80297;SDS011;69599;52.622;9.230;2023-06-22T11:36:04;11.23;;;8.52;;
80297;SDS011;69599;52.622;9.230;2023-06-22T11:38:30;10.55;;;7.93;;
80297;SDS011;69599;52.622;9.230;2023-06-22T11:40:57;9.82;;;7.35;;
80297;SDS011;69599;52.622;9.230;2023-06-22T11:43:23;11.60;;;8.50;;
80297;SDS011;69599;52.622;9.230;2023-06-22T11:45:48;11.13;;;8.45;;
80297;SDS011;69599;52.622;9.230;2023-06-22T11:48:13;12.25;;;8.95;;
80297;SDS011;69599;52.622;9.230;2023-06-22T11:50:39;12.40;;;8.27;;
80297;SDS011;69599;52.622;9.230;2023-06-22T11:53:04;14.43;;;9.07;;
80297;SDS011;69599;52.622;9.230;2023-06-22T11:55:30;9.70;;;8.60;;
80297;SDS011;69599;52.622;9.230;2023-06-22T11:57:55;10.25;;;7.95;;
80297;SDS011;69599;52.622;9.230;2023-06-22T12:00:24;8.98;;;8.07;;
80297;SDS011;69599;52.622;9.230;2023-06-22T12:02:50;8.60;;;7.53;;
80297;SDS011;69599;52.622;9.230;2023-06-22T12:05:19;10.65;;;9.00;;
80297;SDS011;69599;52.622;9.230;2023-06-22T12:07:49;11.73;;;7.93;;
80297;SDS011;69599;52.622;9.230;2023-06-22T12:10:15;12.07;;;9.45;;
80297;SDS011;69599;52.622;9.230;2023-06-22T12:12:40;15.18;;;9.35;;
80297;SDS011;69599;52.622;9.230;2023-06-22T12:15:07;9.35;;;8.35;;
80297;SDS011;69599;52.622;9.230;2023-06-22T12:17:34;12.07;;;9.77;;
80297;SDS011;69599;52.622;9.230;2023-06-22T12:19:59;12.27;;;8.95;;
80297;SDS011;69599;52.622;9.230;2023-06-22T12:22:25;10.68;;;8.52;;
80297;SDS011;69599;52.622;9.230;2023-06-22T12:24:50;8.80;;;7.90;;
80297;SDS011;69599;52.622;9.230;2023-06-22T12:27:16;9.13;;;8.23;;
80297;SDS011;69599;52.622;9.230;2023-06-22T12:29:43;13.20;;;9.27;;
80297;SDS011;69599;52.622;9.230;2023-06-22T12:32:10;9.77;;;8.80;;
80297;SDS011;69599;52.622;9.230;2023-06-22T12:34:38;11.20;;;7.95;;
80297;SDS011;69599;52.622;9.230;2023-06-22T12:37:04;9.38;;;7.47;;
80297;SDS011;69599;52.622;9.230;2023-06-22T12:39:30;10.68;;;8.05;;
80297;SDS011;69599;52.622;9.230;2023-06-22T12:41:56;9.43;;;8.02;;
80297;SDS011;69599;52.622;9.230;2023-06-22T12:44:22;9.05;;;8.15;;
80297;SDS011;69599;52.622;9.230;2023-06-22T12:46:47;9.50;;;8.45;;
80297;SDS011;69599;52.622;9.230;2023-06-22T12:49:13;9.07;;;8.18;;
80297;SDS011;69599;52.622;9.230;2023-06-22T12:51:41;10.25;;;8.05;;
80297;SDS011;69599;52.622;9.230;2023-06-22T12:54:07;9.48;;;8.13;;
80297;SDS011;69599;52.622;9.230;2023-06-22T12:56:33;7.07;;;6.30;;
80297;SDS011;69599;52.622;9.230;2023-06-22T12:58:58;7.43;;;6.63;;
80297;SDS011;69599;52.622;9.230;2023-06-22T13:01:26;7.47;;;6.47;;
80297;SDS011;69599;52.622;9.230;2023-06-22T13:03:52;8.90;;;7.15;;
80297;SDS011;69599;52.622;9.230;2023-06-22T13:06:17;9.48;;;7.72;;
80297;SDS011;69599;52.622;9.230;2023-06-22T13:08:43;7.47;;;6.78;;
80297;SDS011;69599;52.622;9.230;2023-06-22T13:11:08;9.23;;;8.23;;
80297;SDS011;69599;52.622;9.230;2023-06-22T13:13:34;9.25;;;7.97;;
80297;SDS011;69599;52.622;9.230;2023-06-22T13:15:59;9.35;;;7.55;;
80297;SDS011;69599;52.622;9.230;2023-06-22T13:18:25;9.40;;;8.40;;
80297;SDS011;69599;52.622;9.230;2023-06-22T13:20:50;10.40;;;9.15;;
80297;SDS011;69599;52.622;9.230;2023-06-22T13:23:15;9.73;;;8.35;;
80297;SDS011;69599;52.622;9.230;2023-06-22T13:25:41;8.27;;;7.47;;
80297;SDS011;69599;52.622;9.230;2023-06-22T13:28:06;10.40;;;7.90;;
80297;SDS011;69599;52.622;9.230;2023-06-22T13:30:32;9.70;;;8.60;;
80297;SDS011;69599;52.622;9.230;2023-06-22T13:32:57;13.90;;;8.88;;
80297;SDS011;69599;52.622;9.230;2023-06-22T13:35:23;9.10;;;7.80;;
80297;SDS011;69599;52.622;9.230;2023-06-22T13:37:48;9.68;;;8.50;;
80297;SDS011;69599;52.622;9.230;2023-06-22T13:40:14;9.52;;;8.40;;
80297;SDS011;69599;52.622;9.230;2023-06-22T13:42:39;11.52;;;8.50;;
80297;SDS011;69599;52.622;9.230;2023-06-22T13:45:05;9.63;;;8.18;;
80297;SDS011;69599;52.622;9.230;2023-06-22T13:47:31;9.70;;;8.18;;
80297;SDS011;69599;52.622;9.230;2023-06-22T13:49:57;10.07;;;9.05;;
80297;SDS011;69599;52.622;9.230;2023-06-22T13:52:22;9.93;;;8.95;;
80297;SDS011;69599;52.622;9.230;2023-06-22T13:54:48;9.05;;;8.15;;
80297;SDS011;69599;52.622;9.230;2023-06-22T13:57:13;11.27;;;9.15;;
80297;SDS011;69599;52.622;9.230;2023-06-22T13:59:39;9.82;;;8.25;;
80297;SDS011;69599;52.622;9.230;2023-06-22T14:02:04;8.75;;;7.93;;
80297;SDS011;69599;52.622;9.230;2023-06-22T14:04:30;9.93;;;8.95;;
80297;SDS011;69599;52.622;9.230;2023-06-22T14:06:55;10.98;;;8.43;;
80297;SDS011;69599;52.622;9.230;2023-06-22T14:09:21;9.27;;;8.23;;
80297;SDS011;69599;52.622;9.230;2023-06-22T14:11:46;12.02;;;8.95;;
80297;SDS011;69599;52.622;9.230;2023-06-22T14:14:12;13.95;;;8.77;;
80297;SDS011;69599;52.622;9.230;2023-06-22T14:16:37;22.75;;;9.93;;
80297;SDS011;69599;52.622;9.230;2023-06-22T14:19:03;19.60;;;9.55;;
80297;SDS011;69599;52.622;9.230;2023-06-22T14:21:28;12.25;;;9.63;;
80297;SDS011;69599;52.622;9.230;2023-06-22T14:23:54;11.73;;;9.30;;
80297;SDS011;69599;52.622;9.230;2023-06-22T14:26:19;11.73;;;8.95;;
80297;SDS011;69599;52.622;9.230;2023-06-22T14:28:45;9.80;;;8.80;;
80297;SDS011;69599;52.622;9.230;2023-06-22T14:31:18;10.45;;;9.00;;
80297;SDS011;69599;52.622;9.230;2023-06-22T14:33:45;11.73;;;9.75;;
80297;SDS011;69599;52.622;9.230;2023-06-22T14:36:12;10.65;;;9.40;;
80297;SDS011;69599;52.622;9.230;2023-06-22T14:38:37;13.95;;;11.60;;
80297;SDS011;69599;52.622;9.230;2023-06-22T14:41:02;11.77;;;10.48;;
80297;SDS011;69599;52.622;9.230;2023-06-22T14:43:28;11.93;;;10.73;;
80297;SDS011;69599;52.622;9.230;2023-06-22T14:45:53;12.88;;;10.25;;
80297;SDS011;69599;52.622;9.230;2023-06-22T14:48:19;12.35;;;11.05;;
80297;SDS011;69599;52.622;9.230;2023-06-22T14:50:44;14.60;;;11.38;;
80297;SDS011;69599;52.622;9.230;2023-06-22T14:53:10;14.50;;;11.45;;
80297;SDS011;69599;52.622;9.230;2023-06-22T14:55:35;15.30;;;12.50;;